Chloride, New Mexico
Current Conditions -  °F | °C
As of 9:53 PM on Sunday 19 Oct 2014 (Local Time) from KTCS Reporting Station
Light Rain Light Rain  
Wind Chill: 56°   Ceiling: 7000
Heat Index: 56°   Visibility: 8mi
Dew Point: 51°   Wind: 17mph
Humidity: 84%   Direction: 230°SW
Pressure: 30.14"   Gusts: NA
Location:  33.3023°N, 107.76°W
Report Text: KTCS 200353Z AUTO 23015KT 8SM -RA BKN070 OVC085 13/11 A3014 RMK AO2 RAB26 SLP158 P0001 T01330106 TSNO
Loading
Personal Weather Stations






























Interactive Weather Map
Tropical Storm Tracking
New forecast layout! Learn more

10-Day Weather Forecast

Advertisements
Track Severe Weather on mobile